sensor_id;sensor_type;location;lat;lon;timestamp;P1;durP1;ratioP1;P2;durP2;ratioP2
8580;SDS011;4328;48.622;9.230;2023-06-19T00:00:10;7.87;;;7.27;;
8580;SDS011;4328;48.622;9.230;2023-06-19T00:02:40;8.23;;;7.47;;
8580;SDS011;4328;48.622;9.230;2023-06-19T00:05:07;7.97;;;7.37;;
8580;SDS011;4328;48.622;9.230;2023-06-19T00:07:34;7.90;;;7.20;;
8580;SDS011;4328;48.622;9.230;2023-06-19T00:10:00;7.67;;;7.17;;
8580;SDS011;4328;48.622;9.230;2023-06-19T00:12:27;7.90;;;7.30;;
8580;SDS011;4328;48.622;9.230;2023-06-19T00:14:54;7.63;;;6.93;;
8580;SDS011;4328;48.622;9.230;2023-06-19T00:17:21;7.73;;;7.13;;
8580;SDS011;4328;48.622;9.230;2023-06-19T00:19:51;8.00;;;7.40;;
8580;SDS011;4328;48.622;9.230;2023-06-19T00:22:17;8.33;;;7.73;;
8580;SDS011;4328;48.622;9.230;2023-06-19T00:24:44;8.03;;;7.23;;
8580;SDS011;4328;48.622;9.230;2023-06-19T00:27:10;8.67;;;8.03;;
8580;SDS011;4328;48.622;9.230;2023-06-19T00:29:37;8.03;;;7.43;;
8580;SDS011;4328;48.622;9.230;2023-06-19T00:32:05;7.57;;;7.07;;
8580;SDS011;4328;48.622;9.230;2023-06-19T00:34:32;8.20;;;7.50;;
8580;SDS011;4328;48.622;9.230;2023-06-19T00:36:58;7.93;;;7.23;;
8580;SDS011;4328;48.622;9.230;2023-06-19T00:39:25;8.07;;;7.47;;
8580;SDS011;4328;48.622;9.230;2023-06-19T00:41:52;7.90;;;7.40;;
8580;SDS011;4328;48.622;9.230;2023-06-19T00:44:19;7.87;;;7.27;;
8580;SDS011;4328;48.622;9.230;2023-06-19T00:46:45;8.20;;;7.50;;
8580;SDS011;4328;48.622;9.230;2023-06-19T00:49:13;8.33;;;7.73;;
8580;SDS011;4328;48.622;9.230;2023-06-19T00:51:39;8.33;;;7.53;;
8580;SDS011;4328;48.622;9.230;2023-06-19T00:54:06;7.97;;;7.40;;
8580;SDS011;4328;48.622;9.230;2023-06-19T00:56:33;8.10;;;7.30;;
8580;SDS011;4328;48.622;9.230;2023-06-19T00:59:00;8.10;;;7.40;;
8580;SDS011;4328;48.622;9.230;2023-06-19T01:01:28;7.53;;;7.03;;
8580;SDS011;4328;48.622;9.230;2023-06-19T01:03:54;8.10;;;7.40;;
8580;SDS011;4328;48.622;9.230;2023-06-19T01:06:23;7.67;;;6.97;;
8580;SDS011;4328;48.622;9.230;2023-06-19T01:08:53;7.40;;;6.90;;
8580;SDS011;4328;48.622;9.230;2023-06-19T01:11:22;7.77;;;7.17;;
8580;SDS011;4328;48.622;9.230;2023-06-19T01:13:50;7.63;;;7.07;;
8580;SDS011;4328;48.622;9.230;2023-06-19T01:16:19;8.17;;;7.57;;
8580;SDS011;4328;48.622;9.230;2023-06-19T01:18:46;7.63;;;6.93;;
8580;SDS011;4328;48.622;9.230;2023-06-19T01:21:14;7.63;;;7.03;;
8580;SDS011;4328;48.622;9.230;2023-06-19T01:23:42;7.57;;;7.00;;
8580;SDS011;4328;48.622;9.230;2023-06-19T01:26:09;7.43;;;6.93;;
8580;SDS011;4328;48.622;9.230;2023-06-19T01:28:36;7.70;;;7.10;;
8580;SDS011;4328;48.622;9.230;2023-06-19T01:31:03;8.23;;;7.53;;
8580;SDS011;4328;48.622;9.230;2023-06-19T01:33:32;7.30;;;6.80;;
8580;SDS011;4328;48.622;9.230;2023-06-19T01:35:59;8.00;;;7.33;;
8580;SDS011;4328;48.622;9.230;2023-06-19T01:38:28;7.00;;;6.50;;
8580;SDS011;4328;48.622;9.230;2023-06-19T01:40:56;7.40;;;6.70;;
8580;SDS011;4328;48.622;9.230;2023-06-19T01:43:23;7.10;;;6.50;;
8580;SDS011;4328;48.622;9.230;2023-06-19T01:45:50;6.97;;;6.27;;
8580;SDS011;4328;48.622;9.230;2023-06-19T01:48:16;6.40;;;5.90;;
8580;SDS011;4328;48.622;9.230;2023-06-19T01:50:45;5.77;;;5.37;;
8580;SDS011;4328;48.622;9.230;2023-06-19T01:53:11;5.93;;;5.50;;
8580;SDS011;4328;48.622;9.230;2023-06-19T01:55:38;5.70;;;5.30;;
8580;SDS011;4328;48.622;9.230;2023-06-19T01:58:05;5.93;;;5.33;;
8580;SDS011;4328;48.622;9.230;2023-06-19T02:00:32;5.30;;;4.80;;
8580;SDS011;4328;48.622;9.230;2023-06-19T02:03:00;5.67;;;5.17;;
8580;SDS011;4328;48.622;9.230;2023-06-19T02:05:26;5.53;;;4.93;;
8580;SDS011;4328;48.622;9.230;2023-06-19T02:07:53;5.27;;;4.87;;
8580;SDS011;4328;48.622;9.230;2023-06-19T02:10:19;5.03;;;4.63;;
8580;SDS011;4328;48.622;9.230;2023-06-19T02:12:45;5.83;;;5.20;;
8580;SDS011;4328;48.622;9.230;2023-06-19T02:15:13;5.43;;;4.93;;
8580;SDS011;4328;48.622;9.230;2023-06-19T02:17:40;5.43;;;5.03;;
8580;SDS011;4328;48.622;9.230;2023-06-19T02:20:07;5.03;;;4.63;;
8580;SDS011;4328;48.622;9.230;2023-06-19T02:22:37;5.37;;;4.77;;
8580;SDS011;4328;48.622;9.230;2023-06-19T02:25:03;5.40;;;4.90;;
8580;SDS011;4328;48.622;9.230;2023-06-19T02:27:30;5.40;;;5.00;;
8580;SDS011;4328;48.622;9.230;2023-06-19T02:29:56;6.30;;;5.80;;
8580;SDS011;4328;48.622;9.230;2023-06-19T02:32:24;6.17;;;5.67;;
8580;SDS011;4328;48.622;9.230;2023-06-19T02:34:51;5.93;;;5.43;;
8580;SDS011;4328;48.622;9.230;2023-06-19T02:37:17;5.93;;;5.53;;
8580;SDS011;4328;48.622;9.230;2023-06-19T02:39:43;6.30;;;5.80;;
8580;SDS011;4328;48.622;9.230;2023-06-19T02:42:10;5.90;;;5.40;;
8580;SDS011;4328;48.622;9.230;2023-06-19T02:44:37;5.50;;;5.10;;
8580;SDS011;4328;48.622;9.230;2023-06-19T02:47:03;6.10;;;4.97;;
8580;SDS011;4328;48.622;9.230;2023-06-19T02:49:31;5.03;;;4.73;;
8580;SDS011;4328;48.622;9.230;2023-06-19T02:51:57;5.43;;;4.93;;
8580;SDS011;4328;48.622;9.230;2023-06-19T02:54:24;4.50;;;4.23;;
8580;SDS011;4328;48.622;9.230;2023-06-19T02:56:50;5.00;;;4.70;;
8580;SDS011;4328;48.622;9.230;2023-06-19T02:59:16;5.37;;;4.87;;
8580;SDS011;4328;48.622;9.230;2023-06-19T03:01:43;4.90;;;4.60;;
8580;SDS011;4328;48.622;9.230;2023-06-19T03:04:09;5.43;;;4.77;;
8580;SDS011;4328;48.622;9.230;2023-06-19T03:06:37;5.37;;;4.97;;
8580;SDS011;4328;48.622;9.230;2023-06-19T03:09:04;5.00;;;4.60;;
8580;SDS011;4328;48.622;9.230;2023-06-19T03:11:36;5.60;;;4.77;;
8580;SDS011;4328;48.622;9.230;2023-06-19T03:14:03;5.53;;;4.43;;
8580;SDS011;4328;48.622;9.230;2023-06-19T03:16:32;4.80;;;4.50;;
8580;SDS011;4328;48.622;9.230;2023-06-19T03:18:58;6.97;;;4.80;;
8580;SDS011;4328;48.622;9.230;2023-06-19T03:21:25;5.70;;;5.10;;
8580;SDS011;4328;48.622;9.230;2023-06-19T03:23:53;4.90;;;4.50;;
8580;SDS011;4328;48.622;9.230;2023-06-19T03:26:19;5.27;;;4.77;;
8580;SDS011;4328;48.622;9.230;2023-06-19T03:28:46;5.63;;;4.67;;
8580;SDS011;4328;48.622;9.230;2023-06-19T03:31:12;5.10;;;4.60;;
8580;SDS011;4328;48.622;9.230;2023-06-19T03:33:39;5.40;;;4.90;;
8580;SDS011;4328;48.622;9.230;2023-06-19T03:36:05;5.17;;;4.47;;
8580;SDS011;4328;48.622;9.230;2023-06-19T03:38:32;5.00;;;4.70;;
8580;SDS011;4328;48.622;9.230;2023-06-19T03:40:59;5.00;;;4.60;;
8580;SDS011;4328;48.622;9.230;2023-06-19T03:43:26;5.33;;;4.93;;
8580;SDS011;4328;48.622;9.230;2023-06-19T03:45:52;5.00;;;4.60;;
8580;SDS011;4328;48.622;9.230;2023-06-19T03:48:18;5.90;;;4.90;;
8580;SDS011;4328;48.622;9.230;2023-06-19T03:50:45;5.00;;;4.60;;
8580;SDS011;4328;48.622;9.230;2023-06-19T03:53:11;5.10;;;4.60;;
8580;SDS011;4328;48.622;9.230;2023-06-19T03:55:38;5.10;;;4.80;;
8580;SDS011;4328;48.622;9.230;2023-06-19T03:58:05;5.50;;;5.10;;
8580;SDS011;4328;48.622;9.230;2023-06-19T04:00:32;5.30;;;4.70;;
8580;SDS011;4328;48.622;9.230;2023-06-19T04:02:58;5.20;;;4.80;;
8580;SDS011;4328;48.622;9.230;2023-06-19T04:05:25;7.30;;;4.80;;
8580;SDS011;4328;48.622;9.230;2023-06-19T04:07:51;4.87;;;4.47;;
8580;SDS011;4328;48.622;9.230;2023-06-19T04:10:17;6.00;;;5.37;;
8580;SDS011;4328;48.622;9.230;2023-06-19T04:12:44;6.20;;;5.00;;
8580;SDS011;4328;48.622;9.230;2023-06-19T04:15:12;5.33;;;4.87;;
8580;SDS011;4328;48.622;9.230;2023-06-19T04:17:39;5.10;;;4.60;;
8580;SDS011;4328;48.622;9.230;2023-06-19T04:20:05;5.03;;;4.57;;
8580;SDS011;4328;48.622;9.230;2023-06-19T04:22:35;5.17;;;4.43;;
8580;SDS011;4328;48.622;9.230;2023-06-19T04:25:02;4.87;;;4.47;;
8580;SDS011;4328;48.622;9.230;2023-06-19T04:27:29;4.70;;;4.37;;
8580;SDS011;4328;48.622;9.230;2023-06-19T04:29:55;4.37;;;3.97;;
8580;SDS011;4328;48.622;9.230;2023-06-19T04:32:23;3.93;;;3.60;;
8580;SDS011;4328;48.622;9.230;2023-06-19T04:34:49;3.50;;;3.30;;
8580;SDS011;4328;48.622;9.230;2023-06-19T04:37:15;3.80;;;3.60;;
8580;SDS011;4328;48.622;9.230;2023-06-19T04:39:44;3.90;;;3.60;;
8580;SDS011;4328;48.622;9.230;2023-06-19T04:42:10;3.93;;;3.30;;
8580;SDS011;4328;48.622;9.230;2023-06-19T04:44:37;3.97;;;3.67;;
8580;SDS011;4328;48.622;9.230;2023-06-19T04:47:04;3.77;;;3.40;;
8580;SDS011;4328;48.622;9.230;2023-06-19T04:49:32;3.53;;;3.23;;
8580;SDS011;4328;48.622;9.230;2023-06-19T04:51:58;3.37;;;3.17;;
8580;SDS011;4328;48.622;9.230;2023-06-19T04:54:25;3.70;;;3.10;;
8580;SDS011;4328;48.622;9.230;2023-06-19T04:56:51;3.77;;;3.33;;
8580;SDS011;4328;48.622;9.230;2023-06-19T04:59:18;3.97;;;3.67;;
8580;SDS011;4328;48.622;9.230;2023-06-19T05:01:45;3.63;;;3.37;;
8580;SDS011;4328;48.622;9.230;2023-06-19T05:04:11;3.80;;;3.50;;
8580;SDS011;4328;48.622;9.230;2023-06-19T05:06:39;4.03;;;3.47;;
8580;SDS011;4328;48.622;9.230;2023-06-19T05:09:05;3.50;;;3.20;;
8580;SDS011;4328;48.622;9.230;2023-06-19T05:11:32;3.50;;;3.30;;
8580;SDS011;4328;48.622;9.230;2023-06-19T05:13:58;3.73;;;3.43;;
8580;SDS011;4328;48.622;9.230;2023-06-19T05:16:24;3.67;;;3.17;;
8580;SDS011;4328;48.622;9.230;2023-06-19T05:18:51;3.73;;;3.47;;
8580;SDS011;4328;48.622;9.230;2023-06-19T05:21:17;3.37;;;3.07;;
8580;SDS011;4328;48.622;9.230;2023-06-19T05:23:45;4.27;;;3.97;;
8580;SDS011;4328;48.622;9.230;2023-06-19T05:26:15;4.30;;;3.77;;
8580;SDS011;4328;48.622;9.230;2023-06-19T05:28:41;3.80;;;3.60;;
8580;SDS011;4328;48.622;9.230;2023-06-19T05:31:08;3.90;;;3.60;;
8580;SDS011;4328;48.622;9.230;2023-06-19T05:33:34;4.23;;;3.93;;
8580;SDS011;4328;48.622;9.230;2023-06-19T05:36:00;4.47;;;4.07;;
8580;SDS011;4328;48.622;9.230;2023-06-19T05:38:27;4.53;;;4.13;;
8580;SDS011;4328;48.622;9.230;2023-06-19T05:40:56;4.10;;;3.70;;
8580;SDS011;4328;48.622;9.230;2023-06-19T05:43:23;4.20;;;3.80;;
8580;SDS011;4328;48.622;9.230;2023-06-19T05:45:49;4.37;;;3.97;;
8580;SDS011;4328;48.622;9.230;2023-06-19T05:48:16;5.80;;;3.90;;
8580;SDS011;4328;48.622;9.230;2023-06-19T05:50:42;5.97;;;3.83;;
8580;SDS011;4328;48.622;9.230;2023-06-19T05:53:09;3.70;;;3.50;;
8580;SDS011;4328;48.622;9.230;2023-06-19T05:55:35;3.70;;;3.50;;
8580;SDS011;4328;48.622;9.230;2023-06-19T05:58:03;3.93;;;3.63;;
8580;SDS011;4328;48.622;9.230;2023-06-19T06:00:29;4.03;;;3.70;;
8580;SDS011;4328;48.622;9.230;2023-06-19T06:02:57;3.73;;;3.53;;
8580;SDS011;4328;48.622;9.230;2023-06-19T06:05:24;4.37;;;3.50;;
8580;SDS011;4328;48.622;9.230;2023-06-19T06:07:51;4.30;;;4.00;;
8580;SDS011;4328;48.622;9.230;2023-06-19T06:10:18;3.70;;;3.40;;
8580;SDS011;4328;48.622;9.230;2023-06-19T06:12:45;4.17;;;3.43;;
8580;SDS011;4328;48.622;9.230;2023-06-19T06:15:12;3.70;;;3.50;;
8580;SDS011;4328;48.622;9.230;2023-06-19T06:17:39;3.73;;;3.43;;
8580;SDS011;4328;48.622;9.230;2023-06-19T06:20:06;3.60;;;3.30;;
8580;SDS011;4328;48.622;9.230;2023-06-19T06:22:36;3.60;;;3.20;;
8580;SDS011;4328;48.622;9.230;2023-06-19T06:25:02;4.40;;;3.57;;
8580;SDS011;4328;48.622;9.230;2023-06-19T06:27:29;3.27;;;3.03;;
8580;SDS011;4328;48.622;9.230;2023-06-19T06:29:55;3.50;;;2.90;;
8580;SDS011;4328;48.622;9.230;2023-06-19T06:32:23;3.10;;;2.90;;
8580;SDS011;4328;48.622;9.230;2023-06-19T06:34:51;2.67;;;2.50;;
8580;SDS011;4328;48.622;9.230;2023-06-19T06:37:17;2.70;;;2.50;;
8580;SDS011;4328;48.622;9.230;2023-06-19T06:39:47;2.75;;;2.55;;
8580;SDS011;4328;48.622;9.230;2023-06-19T06:42:14;2.70;;;2.60;;
8580;SDS011;4328;48.622;9.230;2023-06-19T06:44:40;2.95;;;2.75;;
8580;SDS011;4328;48.622;9.230;2023-06-19T06:47:07;2.67;;;2.47;;
8580;SDS011;4328;48.622;9.230;2023-06-19T06:49:34;2.67;;;2.47;;
8580;SDS011;4328;48.622;9.230;2023-06-19T06:52:01;2.70;;;2.50;;
8580;SDS011;4328;48.622;9.230;2023-06-19T06:54:28;3.95;;;2.65;;
8580;SDS011;4328;48.622;9.230;2023-06-19T06:56:54;2.90;;;2.47;;
8580;SDS011;4328;48.622;9.230;2023-06-19T06:59:23;2.90;;;2.70;;
8580;SDS011;4328;48.622;9.230;2023-06-19T07:01:49;3.10;;;2.63;;
8580;SDS011;4328;48.622;9.230;2023-06-19T07:04:16;2.38;;;2.28;;
8580;SDS011;4328;48.622;9.230;2023-06-19T07:06:44;2.35;;;2.25;;
8580;SDS011;4328;48.622;9.230;2023-06-19T07:09:11;3.13;;;2.28;;
8580;SDS011;4328;48.622;9.230;2023-06-19T07:11:37;2.40;;;2.30;;
8580;SDS011;4328;48.622;9.230;2023-06-19T07:14:04;2.30;;;2.20;;
8580;SDS011;4328;48.622;9.230;2023-06-19T07:16:30;2.50;;;2.30;;
8580;SDS011;4328;48.622;9.230;2023-06-19T07:18:56;2.42;;;2.33;;
8580;SDS011;4328;48.622;9.230;2023-06-19T07:21:23;2.83;;;2.55;;
8580;SDS011;4328;48.622;9.230;2023-06-19T07:23:51;2.70;;;2.50;;
8580;SDS011;4328;48.622;9.230;2023-06-19T07:26:17;2.67;;;2.58;;
8580;SDS011;4328;48.622;9.230;2023-06-19T07:28:44;4.70;;;2.28;;
8580;SDS011;4328;48.622;9.230;2023-06-19T07:31:10;2.33;;;2.13;;
8580;SDS011;4328;48.622;9.230;2023-06-19T07:33:37;2.88;;;2.53;;
8580;SDS011;4328;48.622;9.230;2023-06-19T07:36:03;2.40;;;2.30;;
8580;SDS011;4328;48.622;9.230;2023-06-19T07:38:30;2.50;;;2.30;;
8580;SDS011;4328;48.622;9.230;2023-06-19T07:40:58;2.60;;;2.50;;
8580;SDS011;4328;48.622;9.230;2023-06-19T07:43:24;2.65;;;2.45;;
8580;SDS011;4328;48.622;9.230;2023-06-19T07:45:50;3.22;;;2.55;;
8580;SDS011;4328;48.622;9.230;2023-06-19T07:48:17;2.78;;;2.58;;
8580;SDS011;4328;48.622;9.230;2023-06-19T07:50:43;2.35;;;2.25;;
8580;SDS011;4328;48.622;9.230;2023-06-19T07:53:11;2.15;;;2.05;;
8580;SDS011;4328;48.622;9.230;2023-06-19T07:55:37;3.00;;;2.50;;
8580;SDS011;4328;48.622;9.230;2023-06-19T07:58:05;2.78;;;2.58;;
8580;SDS011;4328;48.622;9.230;2023-06-19T08:00:31;2.72;;;2.53;;
8580;SDS011;4328;48.622;9.230;2023-06-19T08:02:58;2.50;;;2.30;;
8580;SDS011;4328;48.622;9.230;2023-06-19T08:05:24;2.38;;;2.28;;
8580;SDS011;4328;48.622;9.230;2023-06-19T08:07:51;2.90;;;2.40;;
8580;SDS011;4328;48.622;9.230;2023-06-19T08:10:17;2.40;;;2.17;;
8580;SDS011;4328;48.622;9.230;2023-06-19T08:12:44;2.35;;;2.20;;
8580;SDS011;4328;48.622;9.230;2023-06-19T08:15:12;2.78;;;2.20;;
8580;SDS011;4328;48.622;9.230;2023-06-19T08:17:39;2.38;;;2.28;;
8580;SDS011;4328;48.622;9.230;2023-06-19T08:20:06;2.35;;;2.15;;
8580;SDS011;4328;48.622;9.230;2023-06-19T08:22:33;2.92;;;2.40;;
8580;SDS011;4328;48.622;9.230;2023-06-19T08:25:00;2.50;;;2.40;;
8580;SDS011;4328;48.622;9.230;2023-06-19T08:27:26;2.22;;;2.13;;
8580;SDS011;4328;48.622;9.230;2023-06-19T08:29:53;2.60;;;2.30;;
8580;SDS011;4328;48.622;9.230;2023-06-19T08:32:20;2.33;;;2.22;;
8580;SDS011;4328;48.622;9.230;2023-06-19T08:34:47;2.58;;;2.10;;
8580;SDS011;4328;48.622;9.230;2023-06-19T08:37:13;3.42;;;2.40;;
8580;SDS011;4328;48.622;9.230;2023-06-19T08:39:40;2.10;;;2.00;;
8580;SDS011;4328;48.622;9.230;2023-06-19T08:42:07;2.40;;;2.20;;
8580;SDS011;4328;48.622;9.230;2023-06-19T08:44:33;2.10;;;2.00;;
8580;SDS011;4328;48.622;9.230;2023-06-19T08:47:01;1.98;;;1.88;;
8580;SDS011;4328;48.622;9.230;2023-06-19T08:49:30;2.03;;;1.92;;
8580;SDS011;4328;48.622;9.230;2023-06-19T08:51:58;2.20;;;2.10;;
8580;SDS011;4328;48.622;9.230;2023-06-19T08:54:24;2.00;;;1.90;;
8580;SDS011;4328;48.622;9.230;2023-06-19T08:56:51;2.17;;;1.90;;
8580;SDS011;4328;48.622;9.230;2023-06-19T08:59:18;2.65;;;2.20;;
8580;SDS011;4328;48.622;9.230;2023-06-19T09:01:46;2.60;;;2.10;;
8580;SDS011;4328;48.622;9.230;2023-06-19T09:04:16;2.20;;;2.10;;
8580;SDS011;4328;48.622;9.230;2023-06-19T09:06:51;2.13;;;2.00;;
8580;SDS011;4328;48.622;9.230;2023-06-19T09:09:18;2.10;;;2.00;;
8580;SDS011;4328;48.622;9.230;2023-06-19T09:11:56;2.15;;;2.00;;
8580;SDS011;4328;48.622;9.230;2023-06-19T09:14:23;2.50;;;2.30;;
8580;SDS011;4328;48.622;9.230;2023-06-19T09:16:50;2.10;;;2.00;;
8580;SDS011;4328;48.622;9.230;2023-06-19T09:19:19;2.17;;;2.08;;
8580;SDS011;4328;48.622;9.230;2023-06-19T09:21:46;2.35;;;2.08;;
8580;SDS011;4328;48.622;9.230;2023-06-19T09:24:13;2.40;;;2.20;;
8580;SDS011;4328;48.622;9.230;2023-06-19T09:26:40;2.35;;;2.20;;
8580;SDS011;4328;48.622;9.230;2023-06-19T09:29:09;2.20;;;2.10;;
8580;SDS011;4328;48.622;9.230;2023-06-19T09:31:36;2.10;;;2.00;;
8580;SDS011;4328;48.622;9.230;2023-06-19T09:34:03;2.53;;;1.80;;
8580;SDS011;4328;48.622;9.230;2023-06-19T09:36:29;1.75;;;1.67;;
8580;SDS011;4328;48.622;9.230;2023-06-19T09:38:58;2.55;;;1.80;;
8580;SDS011;4328;48.622;9.230;2023-06-19T09:41:27;2.67;;;1.70;;
8580;SDS011;4328;48.622;9.230;2023-06-19T09:43:55;1.90;;;1.80;;
8580;SDS011;4328;48.622;9.230;2023-06-19T09:46:23;1.58;;;1.48;;
8580;SDS011;4328;48.622;9.230;2023-06-19T09:48:52;1.70;;;1.60;;
8580;SDS011;4328;48.622;9.230;2023-06-19T09:51:23;1.45;;;1.42;;
8580;SDS011;4328;48.622;9.230;2023-06-19T09:53:53;1.55;;;1.45;;
8580;SDS011;4328;48.622;9.230;2023-06-19T09:56:19;1.30;;;1.30;;
8580;SDS011;4328;48.622;9.230;2023-06-19T09:58:48;1.30;;;1.30;;
8580;SDS011;4328;48.622;9.230;2023-06-19T10:01:16;1.65;;;1.35;;
8580;SDS011;4328;48.622;9.230;2023-06-19T10:03:43;1.48;;;1.45;;
8580;SDS011;4328;48.622;9.230;2023-06-19T10:06:13;1.98;;;1.52;;
8580;SDS011;4328;48.622;9.230;2023-06-19T10:08:40;3.00;;;1.60;;
8580;SDS011;4328;48.622;9.230;2023-06-19T10:11:06;1.55;;;1.45;;
8580;SDS011;4328;48.622;9.230;2023-06-19T10:13:33;1.48;;;1.38;;
8580;SDS011;4328;48.622;9.230;2023-06-19T10:16:01;1.40;;;1.40;;
8580;SDS011;4328;48.622;9.230;2023-06-19T10:18:28;1.30;;;1.30;;
8580;SDS011;4328;48.622;9.230;2023-06-19T10:20:54;1.38;;;1.33;;
8580;SDS011;4328;48.622;9.230;2023-06-19T10:23:22;1.30;;;1.30;;
8580;SDS011;4328;48.622;9.230;2023-06-19T10:25:54;1.13;;;1.13;;
8580;SDS011;4328;48.622;9.230;2023-06-19T10:28:22;1.20;;;1.20;;
8580;SDS011;4328;48.622;9.230;2023-06-19T10:30:52;1.38;;;1.38;;
8580;SDS011;4328;48.622;9.230;2023-06-19T10:33:20;1.95;;;1.30;;
8580;SDS011;4328;48.622;9.230;2023-06-19T10:35:47;1.67;;;1.10;;
8580;SDS011;4328;48.622;9.230;2023-06-19T10:38:14;1.83;;;1.40;;
8580;SDS011;4328;48.622;9.230;2023-06-19T10:40:40;1.27;;;1.27;;
8580;SDS011;4328;48.622;9.230;2023-06-19T10:43:07;1.48;;;1.35;;
8580;SDS011;4328;48.622;9.230;2023-06-19T10:45:33;1.20;;;1.20;;
8580;SDS011;4328;48.622;9.230;2023-06-19T10:48:00;1.45;;;1.40;;
8580;SDS011;4328;48.622;9.230;2023-06-19T10:50:29;2.38;;;1.30;;
8580;SDS011;4328;48.622;9.230;2023-06-19T10:52:57;2.83;;;1.52;;
8580;SDS011;4328;48.622;9.230;2023-06-19T10:55:23;1.40;;;1.30;;
8580;SDS011;4328;48.622;9.230;2023-06-19T10:57:50;1.20;;;1.20;;
8580;SDS011;4328;48.622;9.230;2023-06-19T11:00:23;1.48;;;1.40;;
8580;SDS011;4328;48.622;9.230;2023-06-19T11:02:50;1.58;;;1.45;;
8580;SDS011;4328;48.622;9.230;2023-06-19T11:05:18;1.52;;;1.42;;
8580;SDS011;4328;48.622;9.230;2023-06-19T11:07:51;1.75;;;1.67;;
8580;SDS011;4328;48.622;9.230;2023-06-19T11:10:21;1.60;;;1.50;;
8580;SDS011;4328;48.622;9.230;2023-06-19T11:12:48;1.55;;;1.55;;
8580;SDS011;4328;48.622;9.230;2023-06-19T11:15:15;1.58;;;1.48;;
8580;SDS011;4328;48.622;9.230;2023-06-19T11:17:41;1.73;;;1.67;;
8580;SDS011;4328;48.622;9.230;2023-06-19T11:20:09;1.80;;;1.70;;
8580;SDS011;4328;48.622;9.230;2023-06-19T11:22:36;1.98;;;1.88;;
8580;SDS011;4328;48.622;9.230;2023-06-19T11:25:05;1.90;;;1.80;;
8580;SDS011;4328;48.622;9.230;2023-06-19T11:27:32;1.90;;;1.80;;
8580;SDS011;4328;48.622;9.230;2023-06-19T11:30:00;1.92;;;1.83;;
8580;SDS011;4328;48.622;9.230;2023-06-19T11:32:32;1.90;;;1.80;;
8580;SDS011;4328;48.622;9.230;2023-06-19T11:35:04;1.90;;;1.80;;
8580;SDS011;4328;48.622;9.230;2023-06-19T11:37:32;1.83;;;1.73;;
8580;SDS011;4328;48.622;9.230;2023-06-19T11:39:58;1.60;;;1.60;;
8580;SDS011;4328;48.622;9.230;2023-06-19T11:42:28;1.95;;;1.70;;
8580;SDS011;4328;48.622;9.230;2023-06-19T11:44:54;2.00;;;1.90;;
8580;SDS011;4328;48.622;9.230;2023-06-19T11:47:21;1.95;;;1.85;;
8580;SDS011;4328;48.622;9.230;2023-06-19T11:49:48;1.75;;;1.75;;
8580;SDS011;4328;48.622;9.230;2023-06-19T11:52:14;3.03;;;1.80;;
8580;SDS011;4328;48.622;9.230;2023-06-19T11:54:41;2.03;;;1.92;;
8580;SDS011;4328;48.622;9.230;2023-06-19T11:57:08;1.98;;;1.88;;
8580;SDS011;4328;48.622;9.230;2023-06-19T11:59:38;3.28;;;1.90;;
8580;SDS011;4328;48.622;9.230;2023-06-19T12:02:04;2.10;;;2.00;;
8580;SDS011;4328;48.622;9.230;2023-06-19T12:04:31;2.10;;;2.00;;
8580;SDS011;4328;48.622;9.230;2023-06-19T12:06:57;1.90;;;1.80;;
8580;SDS011;4328;48.622;9.230;2023-06-19T12:09:24;2.00;;;1.90;;
8580;SDS011;4328;48.622;9.230;2023-06-19T12:11:50;2.28;;;2.00;;
8580;SDS011;4328;48.622;9.230;2023-06-19T12:14:17;1.90;;;1.80;;
8580;SDS011;4328;48.622;9.230;2023-06-19T12:16:46;2.00;;;1.90;;
8580;SDS011;4328;48.622;9.230;2023-06-19T12:19:12;2.10;;;2.00;;
8580;SDS011;4328;48.622;9.230;2023-06-19T12:21:39;2.60;;;1.80;;
8580;SDS011;4328;48.622;9.230;2023-06-19T12:24:05;2.00;;;1.90;;
8580;SDS011;4328;48.622;9.230;2023-06-19T12:26:32;1.95;;;1.85;;
8580;SDS011;4328;48.622;9.230;2023-06-19T12:29:01;2.30;;;2.20;;
8580;SDS011;4328;48.622;9.230;2023-06-19T12:31:28;2.00;;;1.80;;
8580;SDS011;4328;48.622;9.230;2023-06-19T12:33:56;1.95;;;1.90;;
8580;SDS011;4328;48.622;9.230;2023-06-19T12:36:22;2.20;;;2.00;;
8580;SDS011;4328;48.622;9.230;2023-06-19T12:38:48;1.90;;;1.80;;
8580;SDS011;4328;48.622;9.230;2023-06-19T12:41:15;2.13;;;2.03;;
8580;SDS011;4328;48.622;9.230;2023-06-19T12:43:41;2.15;;;2.05;;
8580;SDS011;4328;48.622;9.230;2023-06-19T12:46:08;2.10;;;2.00;;
8580;SDS011;4328;48.622;9.230;2023-06-19T12:48:34;2.53;;;2.33;;
8580;SDS011;4328;48.622;9.230;2023-06-19T12:51:02;2.65;;;2.38;;
8580;SDS011;4328;48.622;9.230;2023-06-19T12:53:28;2.47;;;2.20;;
8580;SDS011;4328;48.622;9.230;2023-06-19T12:55:56;4.75;;;2.28;;
8580;SDS011;4328;48.622;9.230;2023-06-19T12:58:22;3.35;;;2.10;;
8580;SDS011;4328;48.622;9.230;2023-06-19T13:00:49;3.03;;;2.20;;
8580;SDS011;4328;48.622;9.230;2023-06-19T13:03:15;2.00;;;1.90;;
8580;SDS011;4328;48.622;9.230;2023-06-19T13:05:41;2.58;;;1.95;;
8580;SDS011;4328;48.622;9.230;2023-06-19T13:08:09;2.53;;;2.00;;
8580;SDS011;4328;48.622;9.230;2023-06-19T13:10:35;2.53;;;2.25;;
8580;SDS011;4328;48.622;9.230;2023-06-19T13:13:03;1.95;;;1.85;;
8580;SDS011;4328;48.622;9.230;2023-06-19T13:15:30;2.20;;;2.10;;
8580;SDS011;4328;48.622;9.230;2023-06-19T13:17:58;2.50;;;2.30;;
8580;SDS011;4328;48.622;9.230;2023-06-19T13:20:25;2.17;;;2.00;;
8580;SDS011;4328;48.622;9.230;2023-06-19T13:22:51;2.28;;;2.17;;
8580;SDS011;4328;48.622;9.230;2023-06-19T13:25:19;4.20;;;2.08;;
8580;SDS011;4328;48.622;9.230;2023-06-19T13:27:45;2.53;;;2.10;;
8580;SDS011;4328;48.622;9.230;2023-06-19T13:30:12;2.42;;;2.00;;
8580;SDS011;4328;48.622;9.230;2023-06-19T13:32:38;2.00;;;1.90;;
8580;SDS011;4328;48.622;9.230;2023-06-19T13:35:05;2.35;;;1.70;;
8580;SDS011;4328;48.622;9.230;2023-06-19T13:37:33;2.10;;;2.00;;
8580;SDS011;4328;48.622;9.230;2023-06-19T13:40:00;2.15;;;1.90;;
8580;SDS011;4328;48.622;9.230;2023-06-19T13:42:28;2.22;;;1.88;;
8580;SDS011;4328;48.622;9.230;2023-06-19T13:44:55;2.35;;;2.15;;
8580;SDS011;4328;48.622;9.230;2023-06-19T13:47:21;2.00;;;1.90;;
8580;SDS011;4328;48.622;9.230;2023-06-19T13:49:50;3.30;;;2.15;;
8580;SDS011;4328;48.622;9.230;2023-06-19T13:52:16;2.22;;;2.00;;
8580;SDS011;4328;48.622;9.230;2023-06-19T13:54:42;2.00;;;1.90;;
8580;SDS011;4328;48.622;9.230;2023-06-19T13:57:09;2.33;;;2.00;;
8580;SDS011;4328;48.622;9.230;2023-06-19T13:59:37;1.95;;;1.85;;
8580;SDS011;4328;48.622;9.230;2023-06-19T14:02:03;2.20;;;2.10;;
8580;SDS011;4328;48.622;9.230;2023-06-19T14:04:30;2.60;;;2.03;;
8580;SDS011;4328;48.622;9.230;2023-06-19T14:06:56;2.40;;;2.30;;
8580;SDS011;4328;48.622;9.230;2023-06-19T14:09:23;2.40;;;2.08;;
8580;SDS011;4328;48.622;9.230;2023-06-19T14:11:49;2.58;;;2.20;;
8580;SDS011;4328;48.622;9.230;2023-06-19T14:14:16;2.30;;;2.20;;
8580;SDS011;4328;48.622;9.230;2023-06-19T14:16:43;2.47;;;2.38;;
8580;SDS011;4328;48.622;9.230;2023-06-19T14:19:10;2.28;;;2.17;;
8580;SDS011;4328;48.622;9.230;2023-06-19T14:21:36;2.10;;;2.00;;
8580;SDS011;4328;48.622;9.230;2023-06-19T14:24:03;2.72;;;1.90;;
8580;SDS011;4328;48.622;9.230;2023-06-19T14:26:29;2.20;;;2.10;;
8580;SDS011;4328;48.622;9.230;2023-06-19T14:28:56;2.35;;;2.22;;
8580;SDS011;4328;48.622;9.230;2023-06-19T14:31:23;2.40;;;2.30;;
8580;SDS011;4328;48.622;9.230;2023-06-19T14:33:51;4.35;;;2.20;;
8580;SDS011;4328;48.622;9.230;2023-06-19T14:36:18;2.30;;;2.20;;
8580;SDS011;4328;48.622;9.230;2023-06-19T14:38:44;2.70;;;2.50;;
8580;SDS011;4328;48.622;9.230;2023-06-19T14:41:10;2.78;;;2.20;;
8580;SDS011;4328;48.622;9.230;2023-06-19T14:43:37;2.38;;;2.20;;
8580;SDS011;4328;48.622;9.230;2023-06-19T14:46:03;2.20;;;2.10;;
8580;SDS011;4328;48.622;9.230;2023-06-19T14:48:30;2.60;;;2.40;;
8580;SDS011;4328;48.622;9.230;2023-06-19T14:50:58;2.40;;;2.20;;
8580;SDS011;4328;48.622;9.230;2023-06-19T14:53:24;2.53;;;2.25;;
8580;SDS011;4328;48.622;9.230;2023-06-19T14:55:50;2.50;;;2.40;;
8580;SDS011;4328;48.622;9.230;2023-06-19T14:58:17;2.63;;;2.40;;
8580;SDS011;4328;48.622;9.230;2023-06-19T15:00:43;2.42;;;2.33;;
8580;SDS011;4328;48.622;9.230;2023-06-19T15:03:10;3.08;;;2.42;;
8580;SDS011;4328;48.622;9.230;2023-06-19T15:05:37;2.88;;;2.70;;
8580;SDS011;4328;48.622;9.230;2023-06-19T15:08:04;2.80;;;2.70;;
8580;SDS011;4328;48.622;9.230;2023-06-19T15:10:32;2.47;;;2.38;;
8580;SDS011;4328;48.622;9.230;2023-06-19T15:12:59;2.33;;;2.22;;